RYR38YD EBCI-LEST
Flight info
| Callsign | RYR38YD |
|---|---|
| Flight time | N/A |
| Altitude | 37000 |
| Route | CIV N872 LESDO DCT KOVIN DCT NIDUV DCT KIHVI UN872 ERIGA UN741 AZFIC DCT LOTEE DCT MEGAT |
| Aircraft | A320/M-SDE3FGHIRWY/LB1 |
Departure
| Time | N/A |
|---|---|
| Airport | Brussels South Charleroi Airport (EBCI) |
Arrival
| Time | 2026-04-29 18:12 |
|---|---|
| Airport | Santiago-Rosalía de Castro Airport (LEST) |
| Time | Latitude | Longitude | Altitude | Speed | Heading |
|---|---|---|---|---|---|
| 2026-04-29 16:22 | 50.49554 | 3.77913 | 20227 ft | 402 kts | 202° |
| 2026-04-29 16:22 | 50.46982 | 3.76170 | 20746 ft | 405 kts | 202° |
| 2026-04-29 16:23 | 50.44382 | 3.74410 | 21255 ft | 408 kts | 202° |
| 2026-04-29 16:23 | 50.41809 | 3.72667 | 21738 ft | 411 kts | 202° |
| 2026-04-29 16:23 | 50.39175 | 3.70881 | 22206 ft | 414 kts | 202° |
| 2026-04-29 16:23 | 50.36521 | 3.69079 | 22698 ft | 417 kts | 202° |
| 2026-04-29 16:24 | 50.33850 | 3.67267 | 23153 ft | 420 kts | 201° |
| 2026-04-29 16:24 | 50.31161 | 3.65447 | 23612 ft | 423 kts | 201° |
| 2026-04-29 16:24 | 50.28503 | 3.63648 | 24038 ft | 426 kts | 201° |
| 2026-04-29 16:24 | 50.25776 | 3.61804 | 24471 ft | 428 kts | 201° |
| 2026-04-29 16:25 | 50.23036 | 3.59953 | 24890 ft | 430 kts | 201° |
| 2026-04-29 16:25 | 50.20277 | 3.58094 | 25289 ft | 433 kts | 201° |
| 2026-04-29 16:25 | 50.17503 | 3.56231 | 25671 ft | 436 kts | 201° |
| 2026-04-29 16:25 | 50.14708 | 3.54365 | 26055 ft | 438 kts | 201° |
| 2026-04-29 16:26 | 50.11895 | 3.52485 | 26442 ft | 440 kts | 201° |
| 2026-04-29 16:26 | 50.09078 | 3.50598 | 26798 ft | 443 kts | 201° |
| 2026-04-29 16:26 | 50.06241 | 3.48695 | 27161 ft | 445 kts | 201° |
| 2026-04-29 16:26 | 50.03429 | 3.46808 | 27496 ft | 447 kts | 201° |
| 2026-04-29 16:27 | 50.00565 | 3.44893 | 27827 ft | 449 kts | 201° |
| 2026-04-29 16:27 | 49.97685 | 3.42972 | 28174 ft | 450 kts | 201° |
| 2026-04-29 16:27 | 49.94796 | 3.41052 | 28522 ft | 452 kts | 202° |
| 2026-04-29 16:27 | 49.91900 | 3.39135 | 28865 ft | 454 kts | 202° |
| 2026-04-29 16:28 | 49.88996 | 3.37213 | 29186 ft | 455 kts | 202° |
| 2026-04-29 16:28 | 49.86073 | 3.35278 | 29512 ft | 457 kts | 202° |
| 2026-04-29 16:28 | 49.83145 | 3.33336 | 29824 ft | 458 kts | 202° |
| 2026-04-29 16:28 | 49.80211 | 3.31393 | 30133 ft | 460 kts | 202° |
| 2026-04-29 16:29 | 49.77259 | 3.29445 | 30429 ft | 462 kts | 202° |
| 2026-04-29 16:29 | 49.74310 | 3.27504 | 30830 ft | 460 kts | 202° |
| 2026-04-29 16:29 | 49.71369 | 3.25571 | 31272 ft | 458 kts | 202° |
| 2026-04-29 16:29 | 49.68434 | 3.23641 | 31696 ft | 456 kts | 202° |
| 2026-04-29 16:30 | 49.65520 | 3.21728 | 32134 ft | 454 kts | 202° |
| 2026-04-29 16:30 | 49.62618 | 3.19825 | 32556 ft | 452 kts | 202° |
| 2026-04-29 16:30 | 49.59721 | 3.17929 | 32960 ft | 451 kts | 203° |
| 2026-04-29 16:30 | 49.56845 | 3.16046 | 33367 ft | 449 kts | 203° |
| 2026-04-29 16:31 | 49.54011 | 3.14167 | 33761 ft | 447 kts | 206° |
| 2026-04-29 16:31 | 49.51312 | 3.11803 | 34156 ft | 445 kts | 215° |
| 2026-04-29 16:31 | 49.48907 | 3.08832 | 34522 ft | 443 kts | 225° |
| 2026-04-29 16:31 | 49.46843 | 3.05339 | 34875 ft | 440 kts | 234° |
| 2026-04-29 16:32 | 49.45167 | 3.01428 | 35194 ft | 437 kts | 242° |
| 2026-04-29 16:32 | 49.43675 | 2.97374 | 35498 ft | 436 kts | 242° |
| 2026-04-29 16:32 | 49.42173 | 2.93311 | 35814 ft | 435 kts | 242° |
| 2026-04-29 16:32 | 49.40678 | 2.89287 | 36113 ft | 434 kts | 242° |
| 2026-04-29 16:33 | 49.37682 | 2.81266 | 36657 ft | 432 kts | 242° |
| 2026-04-29 16:33 | 49.36185 | 2.77272 | 36911 ft | 430 kts | 242° |
| 2026-04-29 16:33 | 49.34693 | 2.73296 | 37098 ft | 429 kts | 242° |
| 2026-04-29 16:34 | 49.31806 | 2.65319 | 37105 ft | 426 kts | 243° |
| 2026-04-29 16:34 | 49.29038 | 2.57301 | 37100 ft | 425 kts | 243° |
| 2026-04-29 16:35 | 49.26255 | 2.49315 | 37099 ft | 424 kts | 243° |
| 2026-04-29 16:35 | 49.23445 | 2.41376 | 37084 ft | 424 kts | 243° |
| 2026-04-29 16:36 | 49.20624 | 2.33454 | 37097 ft | 424 kts | 243° |
| 2026-04-29 16:36 | 49.17769 | 2.25559 | 37103 ft | 425 kts | 242° |
| 2026-04-29 16:37 | 49.14857 | 2.17707 | 37114 ft | 424 kts | 242° |
| 2026-04-29 16:37 | 49.12436 | 2.11205 | 37108 ft | 424 kts | 242° |
| 2026-04-29 16:38 | 49.09122 | 2.02007 | 37105 ft | 422 kts | 247° |
| 2026-04-29 16:38 | 49.06714 | 1.93919 | 37105 ft | 421 kts | 246° |
| 2026-04-29 16:39 | 49.04293 | 1.85858 | 37116 ft | 420 kts | 246° |
| 2026-04-29 16:39 | 49.01852 | 1.77782 | 37106 ft | 419 kts | 246° |
| 2026-04-29 16:40 | 48.99409 | 1.69728 | 37106 ft | 418 kts | 246° |
| 2026-04-29 16:40 | 48.96961 | 1.61709 | 37103 ft | 418 kts | 246° |
| 2026-04-29 16:41 | 48.94514 | 1.53688 | 37109 ft | 417 kts | 246° |
| 2026-04-29 16:41 | 48.92068 | 1.45686 | 37109 ft | 416 kts | 246° |
| 2026-04-29 16:42 | 48.89621 | 1.37699 | 37111 ft | 416 kts | 245° |
| 2026-04-29 16:42 | 48.87176 | 1.29745 | 37106 ft | 415 kts | 245° |
| 2026-04-29 16:43 | 48.84717 | 1.21808 | 37105 ft | 415 kts | 245° |
| 2026-04-29 16:43 | 48.82257 | 1.13887 | 37102 ft | 415 kts | 245° |
| 2026-04-29 16:44 | 48.79796 | 1.05969 | 37103 ft | 414 kts | 245° |
| 2026-04-29 16:44 | 48.77354 | 0.98137 | 37098 ft | 413 kts | 245° |
| 2026-04-29 16:45 | 48.74895 | 0.90275 | 37090 ft | 413 kts | 244° |
| 2026-04-29 16:45 | 48.71998 | 0.82767 | 37082 ft | 413 kts | 239° |
| 2026-04-29 16:46 | 48.68996 | 0.75365 | 37082 ft | 413 kts | 239° |
| 2026-04-29 16:46 | 48.65993 | 0.67970 | 37078 ft | 412 kts | 238° |
| 2026-04-29 16:47 | 48.62993 | 0.60596 | 37073 ft | 411 kts | 238° |
| 2026-04-29 16:47 | 48.59994 | 0.53246 | 37069 ft | 411 kts | 238° |
| 2026-04-29 16:48 | 48.56995 | 0.45919 | 37063 ft | 410 kts | 238° |
| 2026-04-29 16:48 | 48.53995 | 0.38600 | 37060 ft | 409 kts | 238° |
| 2026-04-29 16:49 | 48.50998 | 0.31311 | 37055 ft | 409 kts | 238° |
| 2026-04-29 16:49 | 48.47996 | 0.24045 | 37047 ft | 408 kts | 237° |
| 2026-04-29 16:50 | 48.45016 | 0.16841 | 37043 ft | 407 kts | 237° |
| 2026-04-29 16:50 | 48.42002 | 0.09567 | 37033 ft | 407 kts | 237° |
| 2026-04-29 16:51 | 48.39018 | 0.02398 | 37028 ft | 406 kts | 237° |
| 2026-04-29 16:51 | 48.36010 | -0.04785 | 37022 ft | 405 kts | 234° |
| 2026-04-29 16:52 | 48.32754 | -0.11690 | 37003 ft | 405 kts | 231° |
| 2026-04-29 16:52 | 48.29319 | -0.18399 | 36992 ft | 405 kts | 230° |
| 2026-04-29 16:53 | 48.25891 | -0.25126 | 36989 ft | 406 kts | 231° |
| 2026-04-29 16:53 | 48.22467 | -0.31890 | 36990 ft | 407 kts | 230° |
| 2026-04-29 16:54 | 48.19031 | -0.38623 | 36993 ft | 406 kts | 230° |
| 2026-04-29 16:54 | 48.15591 | -0.45335 | 36993 ft | 406 kts | 230° |
| 2026-04-29 16:55 | 48.12705 | -0.50952 | 36992 ft | 406 kts | 230° |
| 2026-04-29 16:55 | 48.09261 | -0.57647 | 36991 ft | 406 kts | 230° |
| 2026-04-29 16:56 | 48.05836 | -0.64298 | 36990 ft | 406 kts | 230° |
| 2026-04-29 16:56 | 48.02391 | -0.70974 | 36988 ft | 405 kts | 230° |
| 2026-04-29 16:57 | 47.98946 | -0.77632 | 36987 ft | 405 kts | 230° |
| 2026-04-29 16:57 | 47.95501 | -0.84258 | 36994 ft | 403 kts | 230° |
| 2026-04-29 16:58 | 47.92074 | -0.90856 | 36993 ft | 402 kts | 230° |
| 2026-04-29 16:58 | 47.88635 | -0.97446 | 36991 ft | 401 kts | 230° |
| 2026-04-29 16:59 | 47.85202 | -1.03998 | 36987 ft | 401 kts | 230° |
| 2026-04-29 16:59 | 47.81770 | -1.10542 | 36981 ft | 401 kts | 230° |
| 2026-04-29 17:00 | 47.78331 | -1.17086 | 36977 ft | 401 kts | 230° |
| 2026-04-29 17:00 | 47.74886 | -1.23618 | 36975 ft | 401 kts | 230° |
| 2026-04-29 17:01 | 47.71435 | -1.30147 | 36972 ft | 401 kts | 230° |
| 2026-04-29 17:01 | 47.67989 | -1.36676 | 36969 ft | 402 kts | 230° |
| 2026-04-29 17:02 | 47.64538 | -1.43181 | 36967 ft | 401 kts | 230° |
| 2026-04-29 17:02 | 47.61094 | -1.49632 | 36968 ft | 402 kts | 230° |
| 2026-04-29 17:03 | 47.57535 | -1.56008 | 36969 ft | 401 kts | 226° |
| 2026-04-29 17:03 | 47.53782 | -1.62117 | 36969 ft | 401 kts | 225° |
| 2026-04-29 17:04 | 47.50002 | -1.68183 | 36966 ft | 401 kts | 226° |
| 2026-04-29 17:04 | 47.46256 | -1.74298 | 36962 ft | 401 kts | 226° |
| 2026-04-29 17:05 | 47.42527 | -1.80414 | 36957 ft | 401 kts | 226° |
| 2026-04-29 17:05 | 47.38787 | -1.86531 | 36955 ft | 401 kts | 226° |
| 2026-04-29 17:06 | 47.34949 | -1.92481 | 36955 ft | 400 kts | 218° |
| 2026-04-29 17:06 | 47.30329 | -1.96983 | 36951 ft | 398 kts | 210° |
| 2026-04-29 17:07 | 47.25598 | -2.01211 | 36948 ft | 398 kts | 210° |
| 2026-04-29 17:07 | 47.20861 | -2.05451 | 36945 ft | 398 kts | 210° |
| 2026-04-29 17:08 | 47.16122 | -2.09671 | 36945 ft | 397 kts | 210° |
| 2026-04-29 17:08 | 47.11392 | -2.13873 | 36942 ft | 397 kts | 210° |
| 2026-04-29 17:09 | 47.06669 | -2.18064 | 36938 ft | 396 kts | 210° |
| 2026-04-29 17:09 | 47.01976 | -2.22221 | 36938 ft | 396 kts | 210° |
| 2026-04-29 17:10 | 46.97251 | -2.26390 | 36936 ft | 397 kts | 210° |
| 2026-04-29 17:10 | 46.92518 | -2.30561 | 36939 ft | 396 kts | 210° |
| 2026-04-29 17:11 | 46.87860 | -2.34873 | 36942 ft | 397 kts | 217° |
| 2026-04-29 17:11 | 46.84198 | -2.40916 | 36943 ft | 402 kts | 236° |
| 2026-04-29 17:12 | 46.81410 | -2.48020 | 36945 ft | 403 kts | 237° |
| 2026-04-29 17:12 | 46.79078 | -2.53919 | 36944 ft | 404 kts | 236° |
| 2026-04-29 17:13 | 46.75779 | -2.62210 | 36948 ft | 405 kts | 236° |
| 2026-04-29 17:13 | 46.72956 | -2.69310 | 36951 ft | 405 kts | 236° |
| 2026-04-29 17:14 | 46.70129 | -2.76412 | 36952 ft | 405 kts | 236° |
| 2026-04-29 17:14 | 46.67302 | -2.83490 | 36949 ft | 405 kts | 236° |
| 2026-04-29 17:15 | 46.64473 | -2.90566 | 36946 ft | 404 kts | 236° |
| 2026-04-29 17:15 | 46.61642 | -2.97645 | 36942 ft | 404 kts | 236° |
| 2026-04-29 17:16 | 46.58797 | -3.04709 | 36940 ft | 404 kts | 236° |
| 2026-04-29 17:16 | 46.55619 | -3.11374 | 36936 ft | 399 kts | 223° |
| 2026-04-29 17:17 | 46.51766 | -3.17166 | 36932 ft | 399 kts | 223° |
| 2026-04-29 17:17 | 46.47936 | -3.22934 | 36931 ft | 399 kts | 223° |
| 2026-04-29 17:18 | 46.44078 | -3.28742 | 36932 ft | 399 kts | 223° |
| 2026-04-29 17:18 | 46.40213 | -3.34542 | 36933 ft | 400 kts | 223° |
| 2026-04-29 17:19 | 46.36338 | -3.40334 | 36936 ft | 400 kts | 223° |
| 2026-04-29 17:19 | 46.32463 | -3.46113 | 36935 ft | 400 kts | 223° |
| 2026-04-29 17:20 | 46.28585 | -3.51884 | 36934 ft | 400 kts | 223° |
| 2026-04-29 17:20 | 46.24707 | -3.57656 | 36932 ft | 400 kts | 223° |
| 2026-04-29 17:21 | 46.20830 | -3.63414 | 36929 ft | 400 kts | 223° |
| 2026-04-29 17:21 | 46.16965 | -3.69135 | 36929 ft | 400 kts | 223° |
| 2026-04-29 17:22 | 46.13072 | -3.74876 | 36922 ft | 400 kts | 223° |
| 2026-04-29 17:22 | 46.09180 | -3.80604 | 36928 ft | 400 kts | 223° |
| 2026-04-29 17:23 | 46.05290 | -3.86320 | 36927 ft | 400 kts | 223° |
| 2026-04-29 17:23 | 46.01398 | -3.92031 | 36927 ft | 399 kts | 223° |
| 2026-04-29 17:24 | 45.97504 | -3.97735 | 36924 ft | 400 kts | 223° |
| 2026-04-29 17:24 | 45.93602 | -4.03442 | 36910 ft | 400 kts | 223° |
| 2026-04-29 17:25 | 45.89702 | -4.09139 | 36913 ft | 399 kts | 223° |
| 2026-04-29 17:25 | 45.85799 | -4.14820 | 36915 ft | 399 kts | 223° |
| 2026-04-29 17:26 | 45.81890 | -4.20489 | 36901 ft | 400 kts | 223° |
| 2026-04-29 17:26 | 45.77977 | -4.26162 | 36910 ft | 400 kts | 222° |
| 2026-04-29 17:27 | 45.74067 | -4.31817 | 36903 ft | 400 kts | 223° |
| 2026-04-29 17:27 | 45.70151 | -4.37469 | 36899 ft | 400 kts | 222° |
| 2026-04-29 17:28 | 45.66226 | -4.43115 | 36902 ft | 400 kts | 222° |
| 2026-04-29 17:28 | 45.62299 | -4.48764 | 36906 ft | 401 kts | 222° |
| 2026-04-29 17:29 | 45.58390 | -4.54368 | 36900 ft | 401 kts | 222° |
| 2026-04-29 17:29 | 45.55084 | -4.59091 | 36900 ft | 401 kts | 222° |
| 2026-04-29 17:30 | 45.50500 | -4.65639 | 36901 ft | 401 kts | 222° |
| 2026-04-29 17:30 | 45.46559 | -4.71270 | 36899 ft | 402 kts | 222° |
| 2026-04-29 17:31 | 45.42602 | -4.76890 | 36890 ft | 402 kts | 222° |
| 2026-04-29 17:31 | 45.38633 | -4.82497 | 36890 ft | 402 kts | 222° |
| 2026-04-29 17:32 | 45.34668 | -4.88110 | 36889 ft | 402 kts | 222° |
| 2026-04-29 17:32 | 45.30706 | -4.93725 | 36885 ft | 402 kts | 222° |
| 2026-04-29 17:33 | 45.26735 | -4.99331 | 36894 ft | 403 kts | 222° |
| 2026-04-29 17:33 | 45.22751 | -5.04916 | 36890 ft | 404 kts | 222° |
| 2026-04-29 17:34 | 45.18760 | -5.10516 | 36888 ft | 403 kts | 222° |
| 2026-04-29 17:34 | 45.14783 | -5.16082 | 36883 ft | 403 kts | 222° |
| 2026-04-29 17:35 | 45.09473 | -5.23513 | 36885 ft | 403 kts | 222° |
| 2026-04-29 17:36 | 45.05478 | -5.29093 | 36880 ft | 403 kts | 222° |
| 2026-04-29 17:36 | 45.01483 | -5.34665 | 36876 ft | 403 kts | 222° |
| 2026-04-29 17:37 | 44.97478 | -5.40214 | 36874 ft | 403 kts | 222° |
| 2026-04-29 17:37 | 44.93471 | -5.45765 | 36870 ft | 403 kts | 222° |
| 2026-04-29 17:38 | 44.89459 | -5.51301 | 36869 ft | 403 kts | 222° |
| 2026-04-29 17:38 | 44.85446 | -5.56830 | 36865 ft | 403 kts | 222° |
| 2026-04-29 17:39 | 44.81446 | -5.62339 | 36863 ft | 403 kts | 222° |
| 2026-04-29 17:39 | 44.77425 | -5.67875 | 36861 ft | 404 kts | 222° |
| 2026-04-29 17:40 | 44.73402 | -5.73393 | 36864 ft | 404 kts | 222° |
| 2026-04-29 17:40 | 44.69374 | -5.78902 | 36868 ft | 404 kts | 222° |
| 2026-04-29 17:41 | 44.65369 | -5.84384 | 36871 ft | 405 kts | 223° |
| 2026-04-29 17:41 | 44.61531 | -5.90186 | 36872 ft | 406 kts | 226° |
| 2026-04-29 17:42 | 44.57809 | -5.96181 | 36877 ft | 407 kts | 227° |
| 2026-04-29 17:42 | 44.54062 | -6.02139 | 36878 ft | 407 kts | 226° |
| 2026-04-29 17:43 | 44.50273 | -6.08040 | 36874 ft | 408 kts | 226° |
| 2026-04-29 17:43 | 44.46450 | -6.13932 | 36874 ft | 408 kts | 226° |
| 2026-04-29 17:44 | 44.42659 | -6.19782 | 36871 ft | 408 kts | 226° |
| 2026-04-29 17:44 | 44.38845 | -6.25679 | 36872 ft | 408 kts | 226° |
| 2026-04-29 17:45 | 44.35033 | -6.31563 | 36870 ft | 408 kts | 226° |
| 2026-04-29 17:45 | 44.31216 | -6.37438 | 36866 ft | 408 kts | 226° |
| 2026-04-29 17:46 | 44.27397 | -6.43301 | 36863 ft | 408 kts | 226° |
| 2026-04-29 17:46 | 44.23571 | -6.49156 | 36861 ft | 408 kts | 226° |
| 2026-04-29 17:47 | 44.19747 | -6.54988 | 36857 ft | 408 kts | 226° |
| 2026-04-29 17:47 | 44.15908 | -6.60844 | 35817 ft | 418 kts | 225° |
| 2026-04-29 17:47 | 44.13945 | -6.63830 | 35390 ft | 413 kts | 225° |
| 2026-04-29 17:48 | 44.12019 | -6.66758 | 35061 ft | 407 kts | 225° |
| 2026-04-29 17:48 | 44.10119 | -6.69648 | 34622 ft | 404 kts | 225° |
| 2026-04-29 17:48 | 44.08228 | -6.72525 | 34187 ft | 401 kts | 225° |
| 2026-04-29 17:48 | 44.06353 | -6.75376 | 33741 ft | 398 kts | 225° |
| 2026-04-29 17:49 | 44.04483 | -6.78212 | 33301 ft | 395 kts | 225° |
| 2026-04-29 17:49 | 44.02660 | -6.80972 | 32872 ft | 392 kts | 224° |
| 2026-04-29 17:49 | 44.00821 | -6.83747 | 32438 ft | 389 kts | 224° |
| 2026-04-29 17:49 | 43.98994 | -6.86501 | 32007 ft | 386 kts | 224° |
| 2026-04-29 17:50 | 43.97177 | -6.89238 | 31582 ft | 384 kts | 224° |
| 2026-04-29 17:50 | 43.95374 | -6.91950 | 31169 ft | 381 kts | 224° |
| 2026-04-29 17:50 | 43.93576 | -6.94650 | 30747 ft | 379 kts | 224° |
| 2026-04-29 17:50 | 43.91792 | -6.97332 | 30337 ft | 377 kts | 224° |
| 2026-04-29 17:51 | 43.90043 | -7.00044 | 29721 ft | 379 kts | 227° |
| 2026-04-29 17:51 | 43.88371 | -7.02906 | 28700 ft | 383 kts | 229° |
| 2026-04-29 17:51 | 43.86738 | -7.05845 | 27671 ft | 386 kts | 230° |
| 2026-04-29 17:51 | 43.85126 | -7.08825 | 26641 ft | 387 kts | 231° |
| 2026-04-29 17:52 | 43.83527 | -7.11800 | 25783 ft | 383 kts | 231° |
| 2026-04-29 17:52 | 43.82473 | -7.13752 | 25269 ft | 379 kts | 231° |
| 2026-04-29 17:52 | 43.80362 | -7.17615 | 24254 ft | 372 kts | 231° |
| 2026-04-29 17:52 | 43.78800 | -7.20445 | 23478 ft | 368 kts | 231° |
| 2026-04-29 17:53 | 43.77259 | -7.23223 | 22855 ft | 359 kts | 231° |
| 2026-04-29 17:53 | 43.75771 | -7.25899 | 22442 ft | 344 kts | 231° |
| 2026-04-29 17:53 | 43.74341 | -7.28469 | 22043 ft | 330 kts | 231° |
| 2026-04-29 17:53 | 43.72975 | -7.30923 | 21668 ft | 324 kts | 231° |
| 2026-04-29 17:54 | 43.71604 | -7.33384 | 21281 ft | 323 kts | 231° |
| 2026-04-29 17:54 | 43.70234 | -7.35839 | 20897 ft | 321 kts | 231° |
| 2026-04-29 17:54 | 43.68871 | -7.38281 | 20512 ft | 319 kts | 230° |
| 2026-04-29 17:54 | 43.67520 | -7.40705 | 20123 ft | 318 kts | 231° |
| 2026-04-29 17:55 | 43.66175 | -7.43117 | 19740 ft | 316 kts | 231° |
| 2026-04-29 17:55 | 43.64832 | -7.45513 | 19372 ft | 314 kts | 230° |
| 2026-04-29 17:55 | 43.63498 | -7.47888 | 18996 ft | 313 kts | 230° |
| 2026-04-29 17:55 | 43.62169 | -7.50258 | 18619 ft | 311 kts | 230° |
| 2026-04-29 17:56 | 43.60853 | -7.52610 | 18241 ft | 309 kts | 230° |
| 2026-04-29 17:56 | 43.59544 | -7.54954 | 17874 ft | 307 kts | 230° |
| 2026-04-29 17:56 | 43.58242 | -7.57284 | 17497 ft | 305 kts | 230° |
| 2026-04-29 17:56 | 43.56942 | -7.59602 | 17128 ft | 304 kts | 230° |
| 2026-04-29 17:57 | 43.55650 | -7.61898 | 16765 ft | 302 kts | 230° |
| 2026-04-29 17:57 | 43.54364 | -7.64182 | 16404 ft | 301 kts | 231° |
| 2026-04-29 17:57 | 43.53083 | -7.66459 | 16041 ft | 299 kts | 231° |
| 2026-04-29 17:57 | 43.52240 | -7.67954 | 15798 ft | 298 kts | 231° |
| 2026-04-29 17:58 | 43.50558 | -7.70933 | 15330 ft | 296 kts | 231° |
| 2026-04-29 17:58 | 43.49293 | -7.73172 | 14972 ft | 295 kts | 231° |
| 2026-04-29 17:58 | 43.48036 | -7.75398 | 14617 ft | 294 kts | 231° |
| 2026-04-29 17:58 | 43.46783 | -7.77620 | 14273 ft | 293 kts | 231° |
| 2026-04-29 17:59 | 43.45536 | -7.79826 | 13909 ft | 291 kts | 231° |
| 2026-04-29 17:59 | 43.44295 | -7.82014 | 13556 ft | 290 kts | 231° |
| 2026-04-29 17:59 | 43.43057 | -7.84198 | 13212 ft | 288 kts | 231° |
| 2026-04-29 17:59 | 43.41828 | -7.86367 | 12860 ft | 287 kts | 231° |
| 2026-04-29 18:00 | 43.40603 | -7.88527 | 12509 ft | 285 kts | 231° |
| 2026-04-29 18:00 | 43.39386 | -7.90672 | 12164 ft | 284 kts | 231° |
| 2026-04-29 18:00 | 43.38172 | -7.92807 | 11819 ft | 283 kts | 231° |
| 2026-04-29 18:00 | 43.36962 | -7.94931 | 11479 ft | 281 kts | 231° |
| 2026-04-29 18:01 | 43.35762 | -7.97037 | 11134 ft | 279 kts | 231° |
| 2026-04-29 18:01 | 43.34573 | -7.99124 | 10787 ft | 277 kts | 231° |
| 2026-04-29 18:01 | 43.33383 | -8.01214 | 10449 ft | 277 kts | 231° |
| 2026-04-29 18:01 | 43.32199 | -8.03292 | 10110 ft | 276 kts | 231° |
| 2026-04-29 18:02 | 43.31020 | -8.05357 | 9768 ft | 275 kts | 231° |
| 2026-04-29 18:02 | 43.29842 | -8.07424 | 9431 ft | 274 kts | 231° |
| 2026-04-29 18:02 | 43.28682 | -8.09451 | 9098 ft | 273 kts | 231° |
| 2026-04-29 18:02 | 43.27514 | -8.11496 | 8764 ft | 273 kts | 232° |
| 2026-04-29 18:03 | 43.26347 | -8.13548 | 8423 ft | 272 kts | 232° |
| 2026-04-29 18:03 | 43.25183 | -8.15591 | 8083 ft | 271 kts | 232° |
| 2026-04-29 18:03 | 43.24023 | -8.17622 | 7742 ft | 271 kts | 232° |
| 2026-04-29 18:03 | 43.22860 | -8.19651 | 7411 ft | 270 kts | 231° |
| 2026-04-29 18:04 | 43.21695 | -8.21679 | 7068 ft | 270 kts | 231° |
| 2026-04-29 18:04 | 43.20530 | -8.23703 | 6720 ft | 270 kts | 231° |
| 2026-04-29 18:04 | 43.19368 | -8.25721 | 6396 ft | 270 kts | 231° |
| 2026-04-29 18:04 | 43.18208 | -8.27736 | 6092 ft | 267 kts | 231° |
| 2026-04-29 18:05 | 43.17072 | -8.29715 | 5877 ft | 262 kts | 232° |
| 2026-04-29 18:05 | 43.15948 | -8.31668 | 5558 ft | 260 kts | 231° |
| 2026-04-29 18:05 | 43.14827 | -8.33615 | 5234 ft | 260 kts | 232° |
| 2026-04-29 18:05 | 43.13737 | -8.35510 | 5078 ft | 253 kts | 231° |
| 2026-04-29 18:06 | 43.12666 | -8.37371 | 4987 ft | 242 kts | 231° |
| 2026-04-29 18:06 | 43.11675 | -8.39082 | 4886 ft | 223 kts | 231° |
| 2026-04-29 18:06 | 43.10761 | -8.40657 | 4834 ft | 201 kts | 231° |
| 2026-04-29 18:06 | 43.09937 | -8.42085 | 4708 ft | 184 kts | 231° |
| 2026-04-29 18:07 | 43.09182 | -8.43394 | 4624 ft | 167 kts | 231° |
| 2026-04-29 18:07 | 43.08480 | -8.44610 | 4564 ft | 158 kts | 231° |
| 2026-04-29 18:07 | 43.07814 | -8.45749 | 4492 ft | 152 kts | 226° |
| 2026-04-29 18:07 | 43.06963 | -8.46596 | 4304 ft | 153 kts | 202° |
| 2026-04-29 18:08 | 43.05937 | -8.46900 | 4130 ft | 150 kts | 179° |
| 2026-04-29 18:08 | 43.04919 | -8.46654 | 3965 ft | 149 kts | 167° |
| 2026-04-29 18:08 | 43.03922 | -8.46318 | 3774 ft | 147 kts | 167° |
| 2026-04-29 18:08 | 43.02929 | -8.45984 | 3565 ft | 147 kts | 166° |
| 2026-04-29 18:09 | 43.01940 | -8.45651 | 3376 ft | 146 kts | 167° |
| 2026-04-29 18:09 | 43.00952 | -8.45319 | 3182 ft | 146 kts | 167° |
| 2026-04-29 18:09 | 42.99965 | -8.44986 | 2986 ft | 146 kts | 166° |
| 2026-04-29 18:09 | 42.98980 | -8.44655 | 2793 ft | 145 kts | 166° |
| 2026-04-29 18:10 | 42.97998 | -8.44325 | 2600 ft | 145 kts | 167° |
| 2026-04-29 18:10 | 42.97045 | -8.44004 | 2413 ft | 144 kts | 168° |
| 2026-04-29 18:10 | 42.96071 | -8.43677 | 2220 ft | 144 kts | 168° |
| 2026-04-29 18:10 | 42.95101 | -8.43351 | 2031 ft | 143 kts | 169° |
| 2026-04-29 18:11 | 42.94133 | -8.43024 | 1835 ft | 143 kts | 169° |
| 2026-04-29 18:11 | 42.93168 | -8.42697 | 1658 ft | 142 kts | 169° |
| 2026-04-29 18:11 | 42.92203 | -8.42374 | 1451 ft | 143 kts | 169° |
| 2026-04-29 18:11 | 42.91239 | -8.42042 | 1283 ft | 143 kts | 168° |
| 2026-04-29 18:12 | 42.90325 | -8.41745 | 1200 ft | 120 kts | 168° |
| 2026-04-29 18:12 | 42.89675 | -8.41532 | 1192 ft | 81 kts | 167° |
| 2026-04-29 18:12 | 42.89219 | -8.41377 | 1193 ft | 53 kts | 165° |
| 2026-04-29 18:12 | 42.88917 | -8.41275 | 1193 ft | 43 kts | 167° |
| 2026-04-29 18:13 | 42.88637 | -8.41187 | 1194 ft | 40 kts | 166° |
| 2026-04-29 18:13 | 42.88419 | -8.41118 | 1197 ft | 17 kts | 179° |
| 2026-04-29 18:13 | 42.88372 | -8.41246 | 1197 ft | 17 kts | 264° |
| 2026-04-29 18:13 | 42.88444 | -8.41345 | 1197 ft | 18 kts | 347° |
| 2026-04-29 18:14 | 42.88575 | -8.41388 | 1195 ft | 21 kts | 346° |
| 2026-04-29 18:14 | 42.88730 | -8.41442 | 1194 ft | 24 kts | 345° |
| 2026-04-29 18:14 | 42.88895 | -8.41496 | 1197 ft | 25 kts | 347° |
| 2026-04-29 18:14 | 42.89060 | -8.41552 | 1198 ft | 12 kts | 347° |
| 2026-04-29 18:15 | 42.89091 | -8.41636 | 1201 ft | 10 kts | 265° |
| 2026-04-29 18:15 | 42.89118 | -8.41708 | 1205 ft | 7 kts | 290° |
| 2026-04-29 18:15 | 42.89120 | -8.41766 | 1206 ft | 7 kts | 272° |
| 2026-04-29 18:15 | 42.89122 | -8.41803 | 1206 ft | 0 kts | 276° |
| 2026-04-29 18:16 | 42.89122 | -8.41805 | 1206 ft | 0 kts | 276° |